Time;durP1;ratioP1;P1;durP2;ratioP2;P2;SDS_P1;SDS_P2;PMS_P1;PMS_P2;Temp;Humidity;BMP_temperature;BMP_pressure;BME280_temperature;BME280_humidity;BME280_pressure;Samples;Min_cycle;Max_cycle;Signal;HPM_P1;HPM_P2
2022/05/30 00:03:32;;;;;;;3.10;2.67;;;;;9.40;95754.00;;;;8368882;28;20232;-73
2022/05/30 00:07:37;;;;;;;3.07;2.87;;;;;9.50;95765.00;;;;8384922;28;20259;-70
2022/05/30 00:11:42;;;;;;;3.63;3.07;;;;;9.50;95768.00;;;;8382063;28;20248;-69
2022/05/30 00:15:46;;;;;;;4.40;3.10;;;;;9.50;95766.00;;;;8381402;28;20223;-68
2022/05/30 00:19:49;;;;;;;3.07;2.87;;;;;9.50;95756.00;;;;8398462;28;20227;-69
2022/05/30 00:23:54;;;;;;;3.17;2.97;;;;;9.50;95761.00;;;;8364448;28;20224;-68
2022/05/30 00:27:58;;;;;;;3.33;3.03;;;;;9.50;95757.00;;;;8397458;28;20218;-72
2022/05/30 00:32:02;;;;;;;3.30;3.00;;;;;9.50;95761.00;;;;8380858;28;20669;-70
2022/05/30 00:36:05;;;;;;;3.20;3.00;;;;;9.50;95750.00;;;;8365485;28;20674;-73
2022/05/30 00:40:10;;;;;;;3.23;2.93;;;;;9.50;95750.00;;;;8363951;28;20260;-69
2022/05/30 00:44:15;;;;;;;4.53;2.90;;;;;9.40;95732.00;;;;8365066;28;20243;-69
2022/05/30 00:48:22;;;;;;;3.40;3.10;;;;;9.30;95746.00;;;;8381609;28;20239;-69
2022/05/30 00:52:29;;;;;;;3.20;2.90;;;;;9.20;95739.00;;;;8366273;28;20319;-71
2022/05/30 00:56:35;;;;;;;4.23;2.83;;;;;9.00;95728.00;;;;8390791;28;20231;-70
2022/05/30 01:00:40;;;;;;;3.20;2.90;;;;;8.80;95726.00;;;;8376326;28;20319;-71
2022/05/30 01:09:08;;;;;;;2.80;2.60;;;;;8.50;95711.00;;;;8382810;28;20307;-70
2022/05/30 01:13:13;;;;;;;3.10;2.90;;;;;8.30;95706.00;;;;8376955;28;20240;-72
2022/05/30 01:17:20;;;;;;;3.00;2.73;;;;;8.10;95709.00;;;;8375705;28;20239;-71
2022/05/30 01:21:52;;;;;;;3.40;2.97;;;;;7.80;95694.00;;;;8374349;28;20263;-69
2022/05/30 01:26:30;;;;;;;3.40;3.10;;;;;7.50;95697.00;;;;8383808;28;20307;-69
2022/05/30 01:30:38;;;;;;;5.57;2.70;;;;;7.40;95696.00;;;;8370438;28;20224;-71
2022/05/30 01:34:41;;;;;;;4.60;2.93;;;;;7.20;95706.00;;;;8378394;28;20579;-70
2022/05/30 01:38:44;;;;;;;4.77;3.10;;;;;7.10;95698.00;;;;8381263;28;20319;-69
2022/05/30 01:42:48;;;;;;;4.13;3.10;;;;;6.90;95693.00;;;;8388411;28;20265;-68
2022/05/30 01:46:52;;;;;;;3.57;3.23;;;;;6.80;95694.00;;;;8373863;28;20238;-67
2022/05/30 01:50:57;;;;;;;6.17;3.43;;;;;6.60;95684.00;;;;8390839;28;20231;-69
2022/05/30 01:55:00;;;;;;;4.73;2.97;;;;;6.50;95673.00;;;;8387177;28;20230;-68
2022/05/30 01:59:03;;;;;;;16.33;4.60;;;;;6.40;95681.00;;;;8380762;28;20318;-69
2022/05/30 02:03:08;;;;;;;3.50;3.20;;;;;6.30;95678.00;;;;8375213;28;20236;-68
2022/05/30 02:07:11;;;;;;;4.63;3.40;;;;;6.20;95679.00;;;;8374610;28;20738;-69
2022/05/30 02:11:16;;;;;;;3.77;3.40;;;;;6.10;95669.00;;;;8390327;28;20269;-69
2022/05/30 02:15:19;;;;;;;3.43;3.13;;;;;6.00;95668.00;;;;8371853;28;20235;-70
2022/05/30 02:19:24;;;;;;;3.77;3.47;;;;;5.90;95665.00;;;;8378465;28;20231;-72
2022/05/30 02:23:27;;;;;;;4.77;3.57;;;;;5.70;95661.00;;;;8383696;28;20318;-69
2022/05/30 02:27:30;;;;;;;5.20;3.60;;;;;5.50;95649.00;;;;8394213;28;20261;-68
2022/05/30 02:31:33;;;;;;;4.10;3.37;;;;;5.50;95649.00;;;;8376123;28;20705;-69
2022/05/30 02:39:58;;;;;;;4.97;3.60;;;;;5.20;95653.00;;;;8388211;28;20333;-71
2022/05/30 02:44:02;;;;;;;4.80;3.80;;;;;5.20;95651.00;;;;8381618;28;20287;-69
2022/05/30 02:48:05;;;;;;;6.60;3.70;;;;;5.20;95654.00;;;;8383949;28;20256;-71
2022/05/30 02:52:10;;;;;;;8.80;4.03;;;;;5.00;95650.00;;;;8365064;28;20232;-70
2022/05/30 02:56:15;;;;;;;4.33;3.80;;;;;4.90;95658.00;;;;8375368;28;20220;-71
2022/05/30 03:04:27;;;;;;;4.70;3.93;;;;;4.90;95657.00;;;;8421932;22;20557;-73
2022/05/30 03:08:32;;;;;;;3.67;3.40;;;;;4.80;95648.00;;;;8391972;28;20233;-69
2022/05/30 03:12:35;;;;;;;7.77;4.00;;;;;4.80;95672.00;;;;8395880;28;20755;-73
2022/05/30 03:16:38;;;;;;;9.57;4.83;;;;;4.80;95670.00;;;;8399373;28;20229;-72
2022/05/30 03:20:42;;;;;;;34.83;5.13;;;;;4.70;95658.00;;;;8408419;28;20675;-75
2022/05/30 03:24:46;;;;;;;36.57;5.53;;;;;4.70;95668.00;;;;8401775;28;20696;-71
2022/05/30 03:28:50;;;;;;;13.23;4.73;;;;;4.70;95671.00;;;;8405101;28;20239;-71
2022/05/30 03:32:53;;;;;;;6.63;4.53;;;;;4.80;95672.00;;;;8409522;28;20231;-68
2022/05/30 03:36:56;;;;;;;5.73;4.27;;;;;4.80;95661.00;;;;8407051;28;20395;-71
2022/05/30 03:41:01;;;;;;;7.20;4.13;;;;;4.80;95666.00;;;;8423522;28;20304;-70
2022/05/30 03:45:05;;;;;;;8.13;4.67;;;;;4.80;95670.00;;;;8441753;28;20238;-68
2022/05/30 03:49:09;;;;;;;6.57;4.23;;;;;4.80;95682.00;;;;8438009;28;20250;-71
2022/05/30 03:53:13;;;;;;;7.67;5.17;;;;;4.90;95683.00;;;;8447409;28;20403;-69
2022/05/30 03:57:17;;;;;;;8.60;4.80;;;;;5.10;95683.00;;;;8428583;28;20215;-70
2022/05/30 04:01:20;;;;;;;8.87;4.53;;;;;5.30;95687.00;;;;8424738;28;20224;-70
2022/05/30 04:05:24;;;;;;;6.17;4.20;;;;;5.60;95695.00;;;;8402343;28;21045;-69
2022/05/30 04:09:27;;;;;;;5.53;3.70;;;;;5.90;95690.00;;;;8369284;28;20317;-72
2022/05/30 04:13:32;;;;;;;4.47;4.07;;;;;6.30;95702.00;;;;8371442;28;20243;-72
2022/05/30 04:17:37;;;;;;;5.67;3.97;;;;;6.80;95699.00;;;;8393012;28;22973;-73
2022/05/30 04:21:41;;;;;;;5.53;3.97;;;;;7.30;95697.00;;;;8404263;28;20568;-71
2022/05/30 04:25:44;;;;;;;4.67;3.53;;;;;7.90;95714.00;;;;8400956;28;20227;-70
2022/05/30 04:29:49;;;;;;;3.53;3.23;;;;;8.30;95708.00;;;;8407655;28;20226;-71
2022/05/30 04:33:53;;;;;;;5.37;4.03;;;;;8.80;95719.00;;;;8404787;28;20577;-68
2022/05/30 04:37:56;;;;;;;4.13;3.40;;;;;9.00;95723.00;;;;8405509;28;20239;-71
2022/05/30 04:41:59;;;;;;;4.40;4.10;;;;;9.50;95718.00;;;;8412988;28;20314;-69
2022/05/30 04:46:06;;;;;;;4.63;3.30;;;;;10.10;95716.00;;;;8410376;28;20227;-70
2022/05/30 04:50:15;;;;;;;3.23;3.00;;;;;10.70;95719.00;;;;8410912;28;20218;-71
2022/05/30 04:54:21;;;;;;;3.53;3.23;;;;;11.30;95723.00;;;;8395259;28;20590;-69
2022/05/30 04:58:25;;;;;;;3.50;3.20;;;;;11.80;95724.00;;;;8408475;28;20432;-69
2022/05/30 05:02:30;;;;;;;3.07;2.87;;;;;12.30;95726.00;;;;8410451;28;20227;-71
2022/05/30 05:06:34;;;;;;;3.07;2.87;;;;;12.70;95722.00;;;;8409358;28;20223;-71
2022/05/30 05:10:46;;;;;;;3.13;2.93;;;;;12.90;95728.00;;;;8400457;28;20226;-68
2022/05/30 05:14:49;;;;;;;3.90;3.20;;;;;13.20;95727.00;;;;8397819;28;20231;-70
2022/05/30 05:18:54;;;;;;;3.60;3.30;;;;;13.40;95724.00;;;;8407673;28;20311;-69
2022/05/30 05:22:58;;;;;;;3.58;3.20;;;;;13.60;95733.00;;;;8403078;28;20318;-68
2022/05/30 05:27:01;;;;;;;3.67;3.17;;;;;13.80;95738.00;;;;8405941;28;20354;-69
2022/05/30 05:31:06;;;;;;;5.95;4.60;;;;;13.90;95743.00;;;;8408621;28;20247;-70
2022/05/30 05:35:11;;;;;;;3.78;3.50;;;;;13.80;95738.00;;;;8402265;28;20627;-69
2022/05/30 05:39:16;;;;;;;3.55;3.22;;;;;13.60;95740.00;;;;8399466;28;20632;-69
2022/05/30 05:43:19;;;;;;;4.90;3.30;;;;;13.50;95742.00;;;;8404745;28;20649;-70
2022/05/30 05:47:22;;;;;;;5.95;4.53;;;;;13.60;95737.00;;;;8400998;28;20223;-67
2022/05/30 05:51:34;;;;;;;3.90;3.50;;;;;13.90;95749.00;;;;8406509;28;20240;-69
2022/05/30 05:55:38;;;;;;;3.30;3.00;;;;;14.50;95756.00;;;;8403932;28;20228;-68
2022/05/30 05:59:42;;;;;;;4.75;3.38;;;;;15.10;95752.00;;;;8378559;28;20218;-68
2022/05/30 06:03:45;;;;;;;4.65;3.10;;;;;15.80;95762.00;;;;8389546;28;20243;-69
2022/05/30 06:07:50;;;;;;;3.22;2.90;;;;;16.40;95765.00;;;;8383093;28;20241;-68
2022/05/30 06:11:54;;;;;;;3.92;3.00;;;;;16.90;95761.00;;;;8377983;28;20226;-69
2022/05/30 06:15:57;;;;;;;3.30;3.00;;;;;17.20;95762.00;;;;8371181;28;20233;-69
2022/05/30 06:20:01;;;;;;;3.08;2.72;;;;;17.30;95763.00;;;;8383549;28;20724;-71
2022/05/30 06:24:08;;;;;;;3.42;2.85;;;;;17.30;95761.00;;;;8370414;28;20231;-68
2022/05/30 06:28:12;;;;;;;7.63;2.90;;;;;17.90;95772.00;;;;8367807;28;20223;-69
2022/05/30 06:32:15;;;;;;;5.93;2.70;;;;;18.60;95769.00;;;;8375627;28;20314;-69
2022/05/30 06:36:21;;;;;;;2.83;2.63;;;;;19.00;95775.00;;;;8378236;28;20239;-67
2022/05/30 06:40:26;;;;;;;2.90;2.60;;;;;19.60;95772.00;;;;8372115;28;20224;-70
2022/05/30 06:44:31;;;;;;;4.10;2.55;;;;;20.00;95778.00;;;;8375127;28;20227;-70
2022/05/30 06:48:35;;;;;;;5.18;2.45;;;;;20.50;95778.00;;;;8375558;28;20281;-66
2022/05/30 06:52:38;;;;;;;4.85;2.05;;;;;20.60;95786.00;;;;8409700;28;20231;-65
2022/05/30 07:01:03;;;;;;;3.25;1.70;;;;;21.00;95792.00;;;;8382772;28;20269;-68
2022/05/30 07:05:07;;;;;;;3.75;1.80;;;;;21.40;95784.00;;;;8386955;28;20583;-67
2022/05/30 07:09:10;;;;;;;4.78;1.60;;;;;21.50;95786.00;;;;8380094;28;20707;-68
2022/05/30 07:13:16;;;;;;;2.00;1.90;;;;;21.20;95789.00;;;;8381168;28;20232;-65
2022/05/30 07:17:19;;;;;;;8.02;1.85;;;;;21.40;95787.00;;;;8381122;28;20247;-64
2022/05/30 07:21:22;;;;;;;2.83;1.90;;;;;21.50;95787.00;;;;8377413;28;20227;-67
2022/05/30 07:25:25;;;;;;;2.83;1.70;;;;;21.80;95787.00;;;;8390474;28;20237;-66
2022/05/30 07:29:30;;;;;;;2.38;1.90;;;;;22.20;95796.00;;;;8404807;28;20215;-66
2022/05/30 07:33:35;;;;;;;4.60;1.70;;;;;22.40;95796.00;;;;8396202;28;20322;-64
2022/05/30 07:37:38;;;;;;;1.65;1.55;;;;;22.90;95800.00;;;;8409243;28;20257;-65
2022/05/30 07:41:41;;;;;;;2.47;1.65;;;;;23.10;95796.00;;;;8408919;28;20349;-65
2022/05/30 07:45:46;;;;;;;3.80;1.70;;;;;23.60;95803.00;;;;8419782;28;20223;-67
2022/05/30 07:49:50;;;;;;;3.45;1.92;;;;;24.10;95807.00;;;;8385745;28;20243;-65
2022/05/30 07:53:53;;;;;;;5.75;1.85;;;;;24.60;95806.00;;;;8401051;28;20223;-67
2022/05/30 07:58:04;;;;;;;2.92;1.52;;;;;24.70;95803.00;;;;8409103;28;20222;-67
2022/05/30 08:02:09;;;;;;;1.70;1.60;;;;;24.70;95813.00;;;;8411642;28;20235;-69
2022/05/30 08:06:14;;;;;;;2.97;1.48;;;;;25.20;95811.00;;;;8414311;28;20223;-66
2022/05/30 08:10:19;;;;;;;3.15;1.70;;;;;24.80;95812.00;;;;8398675;28;20220;-66
2022/05/30 08:14:23;;;;;;;2.88;1.52;;;;;23.60;95816.00;;;;8406894;28;20329;-66
2022/05/30 08:18:28;;;;;;;3.50;1.58;;;;;24.60;95815.00;;;;8410950;28;20211;-67
2022/05/30 08:22:34;;;;;;;3.35;1.35;;;;;25.20;95811.00;;;;8409844;28;20234;-67
2022/05/30 08:26:37;;;;;;;4.88;1.60;;;;;25.40;95814.00;;;;8412305;28;20311;-65
2022/05/30 08:30:41;;;;;;;3.53;1.58;;;;;26.00;95816.00;;;;8402690;28;20722;-66
2022/05/30 08:34:46;;;;;;;6.15;1.95;;;;;26.50;95817.00;;;;8393179;28;20228;-68
2022/05/30 08:38:49;;;;;;;3.88;1.60;;;;;26.90;95815.00;;;;8395054;28;20768;-66
2022/05/30 08:43:15;;;;;;;1.77;1.50;;;;;27.40;95810.00;;;;8397498;28;20656;-66
2022/05/30 08:47:36;;;;;;;2.38;1.70;;;;;27.50;95808.00;;;;8402871;28;20778;-64
2022/05/30 08:52:27;;;;;;;3.72;1.80;;;;;27.60;95808.00;;;;8375960;28;20234;-65
2022/05/30 08:56:35;;;;;;;2.90;1.90;;;;;27.50;95820.00;;;;8375928;28;20805;-66
2022/05/30 09:00:45;;;;;;;3.50;1.55;;;;;27.90;95814.00;;;;8381873;28;22230;-67
2022/05/30 09:04:52;;;;;;;1.70;1.60;;;;;27.60;95814.00;;;;8380877;28;20307;-66
2022/05/30 09:09:01;;;;;;;2.55;1.50;;;;;28.10;95822.00;;;;8384300;28;20728;-67
2022/05/30 09:13:15;;;;;;;2.25;1.92;;;;;28.30;95816.00;;;;8399279;28;20314;-66
2022/05/30 09:17:31;;;;;;;2.25;1.73;;;;;27.40;95814.00;;;;8411595;28;20231;-67
2022/05/30 09:21:36;;;;;;;2.45;1.70;;;;;27.50;95820.00;;;;8412103;28;20231;-67
2022/05/30 09:25:56;;;;;;;3.55;1.60;;;;;28.10;95816.00;;;;8415754;28;20231;-68
2022/05/30 09:30:06;;;;;;;2.35;1.67;;;;;28.90;95814.00;;;;8411423;28;20326;-66
2022/05/30 09:34:36;;;;;;;6.00;2.15;;;;;27.70;95824.00;;;;8413153;28;20848;-67
2022/05/30 09:38:42;;;;;;;1.55;1.40;;;;;26.80;95811.00;;;;8404600;28;20219;-66
2022/05/30 09:42:55;;;;;;;3.90;1.73;;;;;27.40;95815.00;;;;8387047;28;20243;-66
2022/05/30 09:47:05;;;;;;;2.35;1.73;;;;;27.80;95798.00;;;;8418314;28;20235;-67
2022/05/30 09:51:08;;;;;;;1.92;1.65;;;;;28.70;95807.00;;;;8408124;28;20675;-68
2022/05/30 09:55:25;;;;;;;3.40;1.85;;;;;28.10;95810.00;;;;8407978;28;20262;-69
2022/05/30 09:59:35;;;;;;;2.90;1.60;;;;;27.60;95799.00;;;;8415922;28;20260;-69
2022/05/30 10:03:42;;;;;;;1.55;1.45;;;;;27.20;95801.00;;;;8411144;28;20254;-67
2022/05/30 10:07:52;;;;;;;1.60;1.50;;;;;27.80;95799.00;;;;8412018;28;20227;-66
2022/05/30 10:11:58;;;;;;;1.80;1.70;;;;;28.90;95804.00;;;;8413746;28;20223;-68
2022/05/30 10:16:02;;;;;;;4.53;1.65;;;;;29.40;95809.00;;;;8408573;28;20237;-70
2022/05/30 10:20:13;;;;;;;1.75;1.48;;;;;30.20;95804.00;;;;8412630;28;20249;-70
2022/05/30 10:28:50;;;;;;;3.53;1.50;;;;;30.30;95798.00;;;;8406988;28;20227;-69
2022/05/30 10:33:07;;;;;;;2.78;1.40;;;;;30.50;95806.00;;;;8413707;28;20683;-70
2022/05/30 10:37:25;;;;;;;1.40;1.30;;;;;29.70;95809.00;;;;8411259;28;20223;-69
2022/05/30 10:41:34;;;;;;;1.55;1.40;;;;;30.10;95808.00;;;;8406745;28;20250;-69
2022/05/30 10:45:47;;;;;;;1.73;1.17;;;;;30.30;95808.00;;;;8411547;28;20310;-69
2022/05/30 10:49:56;;;;;;;1.55;1.25;;;;;30.90;95806.00;;;;8408973;28;20219;-69
2022/05/30 10:54:09;;;;;;;1.42;1.33;;;;;31.30;95803.00;;;;8411277;28;20921;-68
2022/05/30 10:58:24;;;;;;;1.10;1.10;;;;;31.50;95803.00;;;;8407908;28;20237;-68
2022/05/30 11:02:35;;;;;;;1.33;1.17;;;;;31.90;95804.00;;;;8412224;28;20245;-69
2022/05/30 11:06:43;;;;;;;1.23;1.23;;;;;32.10;95804.00;;;;8412899;28;20338;-69
2022/05/30 11:10:52;;;;;;;1.05;1.05;;;;;31.90;95805.00;;;;8407281;28;20251;-69
2022/05/30 11:15:05;;;;;;;1.42;1.20;;;;;32.30;95805.00;;;;8404112;28;20314;-68
2022/05/30 11:19:36;;;;;;;1.92;1.25;;;;;32.60;95802.00;;;;8408517;28;20235;-69
2022/05/30 11:23:42;;;;;;;1.25;1.15;;;;;32.20;95800.00;;;;8410728;28;20310;-67
2022/05/30 11:28:00;;;;;;;1.98;1.10;;;;;32.10;95800.00;;;;8408739;28;20227;-67
2022/05/30 11:32:09;;;;;;;1.52;1.30;;;;;32.00;95799.00;;;;8406033;28;21443;-67
2022/05/30 11:36:33;;;;;;;2.40;1.25;;;;;32.20;95804.00;;;;8408831;28;20218;-67
2022/05/30 11:40:48;;;;;;;1.02;1.02;;;;;32.10;95805.00;;;;8404775;28;20305;-69
2022/05/30 11:44:57;;;;;;;1.50;1.40;;;;;32.80;95809.00;;;;8408424;28;20219;-69
2022/05/30 11:49:06;;;;;;;0.98;0.95;;;;;33.30;95812.00;;;;8409635;28;20227;-67
2022/05/30 11:53:55;;;;;;;2.03;1.10;;;;;33.80;95812.00;;;;8411270;28;20239;-68
2022/05/30 11:58:06;;;;;;;1.33;1.17;;;;;33.70;95808.00;;;;8415683;28;20575;-68
2022/05/30 12:02:16;;;;;;;2.00;1.13;;;;;34.20;95807.00;;;;8410023;28;20371;-70
2022/05/30 12:06:44;;;;;;;3.17;1.50;;;;;34.60;95812.00;;;;8388525;28;20327;-68
2022/05/30 12:11:11;;;;;;;7.07;1.20;;;;;34.60;95812.00;;;;8402728;28;20618;-67
2022/05/30 12:15:43;;;;;;;1.85;1.30;;;;;34.80;95810.00;;;;8369620;28;20218;-68
2022/05/30 12:24:32;;;;;;;1.48;1.10;;;;;34.50;95816.00;;;;8392662;28;20652;-73
2022/05/30 12:28:55;;;;;;;1.33;1.20;;;;;34.10;95806.00;;;;8409894;28;20631;-74
2022/05/30 12:32:58;;;;;;;1.08;1.08;;;;;33.80;95815.00;;;;8410238;28;20230;-71
2022/05/30 12:37:04;;;;;;;1.00;1.00;;;;;33.00;95818.00;;;;8405045;28;20301;-72
2022/05/30 12:41:20;;;;;;;1.73;1.00;;;;;31.60;95817.00;;;;8410328;28;20288;-74
2022/05/30 12:45:37;;;;;;;1.67;1.05;;;;;30.30;95819.00;;;;8411803;28;20306;-72
2022/05/30 12:49:41;;;;;;;1.20;1.20;;;;;29.50;95824.00;;;;8411169;28;20306;-75
2022/05/30 12:54:27;;;;;;;1.52;1.40;;;;;28.70;95825.00;;;;8415606;28;20219;-70
2022/05/30 12:59:15;;;;;;;1.08;1.08;;;;;28.10;95823.00;;;;8413203;28;20239;-71
2022/05/30 13:03:36;;;;;;;3.40;1.20;;;;;27.70;95829.00;;;;8322792;28;20228;-69
2022/05/30 13:07:39;;;;;;;1.15;0.93;;;;;27.50;95831.00;;;;8380719;28;20768;-66
2022/05/30 13:11:59;;;;;;;1.10;1.10;;;;;26.60;95828.00;;;;8381200;28;20263;-67
2022/05/30 13:16:10;;;;;;;1.83;1.35;;;;;25.80;95822.00;;;;8383544;28;21150;-69
2022/05/30 13:20:17;;;;;;;1.30;1.20;;;;;25.70;95825.00;;;;8378610;28;20234;-67
2022/05/30 13:24:32;;;;;;;2.13;1.20;;;;;25.60;95832.00;;;;8381764;28;20326;-71
2022/05/30 13:28:41;;;;;;;1.15;1.15;;;;;26.20;95830.00;;;;8383172;28;20306;-71
2022/05/30 13:32:45;;;;;;;1.95;1.20;;;;;26.60;95841.00;;;;8387047;28;20618;-69
2022/05/30 13:36:50;;;;;;;1.30;1.30;;;;;27.20;95828.00;;;;8382241;28;20243;-68
2022/05/30 13:40:53;;;;;;;2.65;1.20;;;;;27.50;95836.00;;;;8382139;28;20236;-66
2022/05/30 13:45:01;;;;;;;1.40;1.10;;;;;27.30;95844.00;;;;8383081;28;20699;-66
2022/05/30 13:49:05;;;;;;;1.45;1.25;;;;;26.90;95832.00;;;;8381373;28;20228;-66
2022/05/30 13:53:09;;;;;;;1.35;1.23;;;;;26.00;95834.00;;;;8377012;28;20316;-66
2022/05/30 13:57:14;;;;;;;2.53;1.20;;;;;25.50;95846.00;;;;8379472;28;20273;-64
2022/05/30 14:01:22;;;;;;;1.48;1.42;;;;;25.20;95836.00;;;;8379397;28;20562;-64
2022/05/30 14:05:35;;;;;;;1.25;1.13;;;;;25.10;95838.00;;;;8407601;28;20636;-65
2022/05/30 14:09:40;;;;;;;1.38;1.27;;;;;25.40;95836.00;;;;8409290;28;20242;-67
2022/05/30 14:13:52;;;;;;;2.08;1.05;;;;;25.60;95835.00;;;;8414572;28;20219;-69
2022/05/30 14:17:56;;;;;;;1.20;1.15;;;;;27.00;95842.00;;;;8414409;28;20253;-68
2022/05/30 14:22:01;;;;;;;1.50;1.40;;;;;27.10;95837.00;;;;8413502;28;20223;-67
2022/05/30 14:26:09;;;;;;;2.72;1.38;;;;;26.50;95836.00;;;;8414758;28;20390;-70
2022/05/30 14:30:19;;;;;;;1.33;1.10;;;;;26.00;95833.00;;;;8418479;28;20234;-69
2022/05/30 14:34:34;;;;;;;1.00;1.00;;;;;25.60;95842.00;;;;8412742;28;20233;-68
2022/05/30 14:38:44;;;;;;;1.20;1.10;;;;;25.50;95846.00;;;;8409979;28;20273;-67
2022/05/30 14:42:52;;;;;;;1.92;1.20;;;;;25.50;95843.00;;;;8408749;28;20322;-69
2022/05/30 14:46:56;;;;;;;1.25;1.08;;;;;25.70;95843.00;;;;8414663;28;20288;-69
2022/05/30 14:51:05;;;;;;;2.05;1.00;;;;;25.90;95848.00;;;;8413247;28;20234;-69
2022/05/30 14:55:12;;;;;;;3.20;1.58;;;;;26.20;95857.00;;;;8412912;28;20318;-69
2022/05/30 14:59:34;;;;;;;1.40;1.30;;;;;26.70;95856.00;;;;8411431;28;20250;-67
2022/05/30 15:07:59;;;;;;;1.38;1.30;;;;;27.90;95857.00;;;;8419886;28;20912;-67
2022/05/30 15:12:02;;;;;;;1.73;1.20;;;;;29.10;95861.00;;;;8413636;28;20724;-68
2022/05/30 15:16:07;;;;;;;1.58;1.10;;;;;30.40;95868.00;;;;8411969;28;20230;-68
2022/05/30 15:20:11;;;;;;;1.13;1.13;;;;;31.00;95873.00;;;;8417358;28;20225;-72
2022/05/30 15:24:17;;;;;;;2.38;1.20;;;;;31.70;95880.00;;;;8414866;28;20223;-69
2022/05/30 15:28:21;;;;;;;1.33;1.30;;;;;32.20;95880.00;;;;8412610;28;20223;-69
2022/05/30 15:32:27;;;;;;;1.50;1.40;;;;;32.00;95880.00;;;;8412220;28;20322;-68
2022/05/30 15:36:31;;;;;;;1.25;0.90;;;;;30.80;95880.00;;;;8411223;28;20754;-67
2022/05/30 15:40:41;;;;;;;1.58;1.30;;;;;29.80;95887.00;;;;8411017;28;20255;-68
2022/05/30 15:44:53;;;;;;;1.02;1.02;;;;;29.00;95875.00;;;;8412873;28;20268;-68
2022/05/30 15:48:57;;;;;;;1.33;1.23;;;;;28.80;95880.00;;;;8412492;28;20708;-68
2022/05/30 15:57:29;;;;;;;2.03;1.80;;;;;27.10;95881.00;;;;8415925;28;20298;-67
2022/05/30 16:01:32;;;;;;;3.08;1.55;;;;;26.30;95879.00;;;;8411598;28;20257;-73
2022/05/30 16:05:37;;;;;;;1.10;1.10;;;;;25.80;95883.00;;;;8378484;28;20668;-68
2022/05/30 16:09:44;;;;;;;1.98;1.50;;;;;25.30;95872.00;;;;8377469;28;20245;-68
2022/05/30 16:13:48;;;;;;;1.60;1.50;;;;;25.00;95869.00;;;;8361276;28;20274;-69
2022/05/30 16:17:51;;;;;;;2.88;1.35;;;;;24.70;95869.00;;;;8351363;28;20315;-69
2022/05/30 16:21:56;;;;;;;2.80;1.42;;;;;24.50;95876.00;;;;8356670;28;20856;-67
2022/05/30 16:26:03;;;;;;;4.85;1.40;;;;;24.20;95881.00;;;;8351106;28;20232;-69
2022/05/30 16:30:08;;;;;;;2.25;1.40;;;;;24.00;95870.00;;;;8347097;28;20303;-67
2022/05/30 16:34:13;;;;;;;1.30;1.23;;;;;23.90;95873.00;;;;8383155;28;20263;-68
2022/05/30 16:38:20;;;;;;;1.27;1.10;;;;;23.70;95875.00;;;;8384358;28;20224;-68
2022/05/30 16:42:23;;;;;;;3.03;2.05;;;;;23.40;95886.00;;;;8385692;28;20233;-67
2022/05/30 16:46:27;;;;;;;1.00;1.00;;;;;23.10;95880.00;;;;8385715;28;20224;-68
2022/05/30 16:50:31;;;;;;;1.50;1.40;;;;;22.90;95888.00;;;;8384943;28;20267;-68
2022/05/30 16:54:36;;;;;;;1.40;1.30;;;;;22.80;95884.00;;;;8385633;28;20235;-68
2022/05/30 16:58:39;;;;;;;1.50;1.40;;;;;22.70;95892.00;;;;8378348;28;20239;-67
2022/05/30 17:02:43;;;;;;;2.05;1.60;;;;;22.60;95897.00;;;;8382860;28;20681;-66
2022/05/30 17:06:47;;;;;;;1.52;1.52;;;;;22.90;95896.00;;;;8379681;28;20271;-67
2022/05/30 17:10:52;;;;;;;1.40;1.30;;;;;24.40;95893.00;;;;8385132;28;20223;-65
2022/05/30 17:14:55;;;;;;;1.77;1.50;;;;;25.80;95901.00;;;;8387719;28;20310;-67
2022/05/30 17:19:01;;;;;;;1.73;1.60;;;;;27.00;95907.00;;;;8380142;28;20230;-66
2022/05/30 17:23:04;;;;;;;2.15;1.40;;;;;27.90;95909.00;;;;8389201;28;20228;-67
2022/05/30 17:31:32;;;;;;;2.20;1.40;;;;;29.50;95916.00;;;;8379307;28;20227;-67
2022/05/30 17:35:36;;;;;;;1.75;1.50;;;;;30.00;95926.00;;;;8386264;28;20307;-69
2022/05/30 17:39:39;;;;;;;1.80;1.30;;;;;30.40;95932.00;;;;8378804;28;20307;-67
2022/05/30 17:43:44;;;;;;;1.80;1.40;;;;;30.60;95934.00;;;;8381113;28;20216;-67
2022/05/30 17:47:55;;;;;;;3.38;1.63;;;;;29.60;95932.00;;;;8388003;28;20228;-69
2022/05/30 17:52:04;;;;;;;1.40;1.27;;;;;29.00;95934.00;;;;8382372;28;20249;-68
2022/05/30 17:56:13;;;;;;;2.17;1.23;;;;;27.70;95941.00;;;;8376303;28;20226;-69
2022/05/30 18:00:21;;;;;;;2.42;1.55;;;;;25.80;95946.00;;;;8378005;28;20227;-67
2022/05/30 18:04:25;;;;;;;1.70;1.30;;;;;24.30;95943.00;;;;8368914;28;20243;-66
2022/05/30 18:08:33;;;;;;;3.40;1.58;;;;;23.30;95939.00;;;;8376276;28;20239;-66
2022/05/30 18:12:45;;;;;;;1.50;1.40;;;;;22.50;95939.00;;;;8380945;28;20228;-67
2022/05/30 18:16:52;;;;;;;1.83;1.50;;;;;21.90;95946.00;;;;8376569;28;20279;-68
2022/05/30 18:21:14;;;;;;;1.63;1.52;;;;;21.40;95948.00;;;;8378676;28;20231;-67
2022/05/30 18:25:25;;;;;;;1.40;1.30;;;;;21.00;95952.00;;;;8379103;28;20240;-67
2022/05/30 18:29:29;;;;;;;1.83;1.50;;;;;20.60;95950.00;;;;8376082;28;20236;-68
2022/05/30 18:33:38;;;;;;;2.38;1.30;;;;;20.30;95947.00;;;;8374122;28;20951;-69
2022/05/30 18:37:51;;;;;;;1.55;1.45;;;;;20.00;95958.00;;;;8374130;28;20224;-67
2022/05/30 18:42:16;;;;;;;2.88;1.58;;;;;19.80;95971.00;;;;8372227;28;20241;-66
2022/05/30 18:46:25;;;;;;;2.65;1.38;;;;;19.60;95975.00;;;;8375415;28;20719;-67
2022/05/30 18:50:30;;;;;;;1.55;1.45;;;;;19.50;95973.00;;;;8366885;28;20235;-69
2022/05/30 18:54:34;;;;;;;1.70;1.50;;;;;19.40;95983.00;;;;8345739;28;20225;-68
2022/05/30 18:58:45;;;;;;;1.60;1.50;;;;;19.20;95979.00;;;;8340708;28;20225;-65
2022/05/30 19:02:56;;;;;;;1.60;1.50;;;;;18.90;95978.00;;;;8354903;28;20231;-66
2022/05/30 19:07:03;;;;;;;2.30;1.80;;;;;18.60;95982.00;;;;8382400;28;20227;-67
2022/05/30 19:11:14;;;;;;;2.13;1.65;;;;;18.20;95985.00;;;;8372857;28;20324;-67
2022/05/30 19:19:48;;;;;;;5.80;1.50;;;;;17.20;95995.00;;;;8376971;28;20314;-67
2022/05/30 19:23:52;;;;;;;2.13;1.60;;;;;16.80;95997.00;;;;8365830;28;20218;-68
2022/05/30 19:28:00;;;;;;;2.88;1.98;;;;;16.50;96007.00;;;;8375887;28;20216;-72
2022/05/30 19:32:05;;;;;;;2.08;1.88;;;;;16.10;96014.00;;;;8345156;28;20302;-65
2022/05/30 19:36:08;;;;;;;2.50;1.85;;;;;15.80;96012.00;;;;8376915;28;20234;-67
2022/05/30 19:40:13;;;;;;;2.25;1.85;;;;;15.40;96011.00;;;;8376814;28;20224;-68
2022/05/30 19:44:19;;;;;;;2.95;1.85;;;;;15.00;96011.00;;;;8375259;28;20224;-66
2022/05/30 19:48:22;;;;;;;2.50;1.95;;;;;14.60;96017.00;;;;8380150;28;20238;-66
2022/05/30 19:52:26;;;;;;;4.10;1.80;;;;;14.20;96019.00;;;;8386425;28;20684;-67
2022/05/30 19:56:35;;;;;;;2.10;2.00;;;;;13.90;96030.00;;;;8385536;28;20239;-67
2022/05/30 20:00:38;;;;;;;2.20;1.90;;;;;13.60;96028.00;;;;8378744;28;20288;-67
2022/05/30 20:04:41;;;;;;;5.28;2.22;;;;;13.30;96031.00;;;;8382033;28;20228;-66
2022/05/30 20:08:44;;;;;;;1.85;1.70;;;;;13.20;96039.00;;;;8384898;28;20963;-65
2022/05/30 20:12:49;;;;;;;4.32;2.25;;;;;13.20;96039.00;;;;8379596;28;20554;-65
2022/05/30 20:16:53;;;;;;;3.75;1.60;;;;;13.30;96048.00;;;;8384640;28;20216;-65
2022/05/30 20:20:56;;;;;;;1.67;1.58;;;;;13.40;96046.00;;;;8350635;28;20685;-65
2022/05/30 20:25:00;;;;;;;1.80;1.65;;;;;13.40;96054.00;;;;8367821;28;20307;-65
2022/05/30 20:29:04;;;;;;;6.15;1.75;;;;;13.40;96057.00;;;;8386501;28;20814;-65
2022/05/30 20:33:08;;;;;;;2.13;1.83;;;;;13.20;96048.00;;;;8384430;28;20230;-65
2022/05/30 20:37:16;;;;;;;2.13;1.92;;;;;13.10;96053.00;;;;8383158;28;20225;-64
2022/05/30 20:45:43;;;;;;;2.83;1.90;;;;;12.50;96060.00;;;;8386478;28;21084;-67
2022/05/30 20:49:48;;;;;;;3.40;2.20;;;;;12.30;96053.00;;;;8386439;28;20231;-65
2022/05/30 20:53:51;;;;;;;5.70;2.00;;;;;12.20;96057.00;;;;8371463;28;20651;-65
2022/05/30 20:57:54;;;;;;;4.78;1.88;;;;;12.10;96061.00;;;;8352263;28;20233;-65
2022/05/30 21:01:59;;;;;;;2.17;2.00;;;;;12.10;96055.00;;;;8355215;28;20235;-65
2022/05/30 21:06:02;;;;;;;2.30;2.10;;;;;12.20;96058.00;;;;8417517;28;20702;-66
2022/05/30 21:10:06;;;;;;;2.30;2.05;;;;;12.00;96065.00;;;;8419237;28;20568;-66
2022/05/30 21:14:10;;;;;;;3.22;2.42;;;;;11.90;96060.00;;;;8411256;28;20792;-66
2022/05/30 21:18:17;;;;;;;3.40;2.03;;;;;11.60;96063.00;;;;8423402;28;20317;-65
2022/05/30 21:22:24;;;;;;;3.45;2.10;;;;;11.40;96063.00;;;;8417352;28;20660;-66
2022/05/30 21:26:27;;;;;;;3.37;2.30;;;;;11.20;96062.00;;;;8417698;28;20700;-65
2022/05/30 21:30:33;;;;;;;3.55;2.30;;;;;11.10;96064.00;;;;8415839;28;20338;-65